sensor_id;sensor_type;location;lat;lon;timestamp;P1;durP1;ratioP1;P2;durP2;ratioP2
46983;SDS011;34732;52.112;9.366;2023-05-07T07:35:18;14.18;;;8.32;;
46983;SDS011;34732;52.112;9.366;2023-05-07T07:38:41;8.57;;;7.30;;
46983;SDS011;34732;52.112;9.366;2023-05-07T07:45:38;8.23;;;7.43;;
46983;SDS011;34732;52.112;9.366;2023-05-07T07:49:02;10.52;;;7.35;;
46983;SDS011;34732;52.112;9.366;2023-05-07T07:52:24;8.32;;;7.28;;
46983;SDS011;34732;52.112;9.366;2023-05-07T07:55:47;8.48;;;7.57;;
46983;SDS011;34732;52.112;9.366;2023-05-07T07:59:14;11.70;;;8.07;;
46983;SDS011;34732;52.112;9.366;2023-05-07T08:02:42;8.40;;;7.07;;
46983;SDS011;34732;52.112;9.366;2023-05-07T08:06:14;10.90;;;7.70;;
46983;SDS011;34732;52.112;9.366;2023-05-07T08:09:38;9.73;;;7.47;;
46983;SDS011;34732;52.112;9.366;2023-05-07T08:13:07;14.30;;;9.00;;
46983;SDS011;34732;52.112;9.366;2023-05-07T08:21:00;12.93;;;9.45;;
46983;SDS011;34732;52.112;9.366;2023-05-07T08:24:28;15.05;;;8.88;;
46983;SDS011;34732;52.112;9.366;2023-05-07T08:27:49;12.32;;;9.20;;
46983;SDS011;34732;52.112;9.366;2023-05-07T08:31:15;15.70;;;9.65;;
46983;SDS011;34732;52.112;9.366;2023-05-07T08:34:38;15.55;;;9.93;;
46983;SDS011;34732;52.112;9.366;2023-05-07T08:38:04;15.43;;;9.07;;
46983;SDS011;34732;52.112;9.366;2023-05-07T08:41:25;12.80;;;8.45;;
46983;SDS011;34732;52.112;9.366;2023-05-07T08:44:50;11.60;;;8.75;;
46983;SDS011;34732;52.112;9.366;2023-05-07T08:48:17;12.77;;;8.88;;
46983;SDS011;34732;52.112;9.366;2023-05-07T08:51:48;13.43;;;9.03;;
46983;SDS011;34732;52.112;9.366;2023-05-07T08:55:14;12.68;;;8.23;;
46983;SDS011;34732;52.112;9.366;2023-05-07T08:58:36;13.32;;;8.25;;
46983;SDS011;34732;52.112;9.366;2023-05-07T09:05:21;13.15;;;9.02;;
46983;SDS011;34732;52.112;9.366;2023-05-07T09:08:49;12.75;;;8.48;;
46983;SDS011;34732;52.112;9.366;2023-05-07T09:12:14;16.38;;;7.85;;
46983;SDS011;34732;52.112;9.366;2023-05-07T09:15:38;13.85;;;8.55;;
46983;SDS011;34732;52.112;9.366;2023-05-07T09:19:04;16.02;;;7.75;;
46983;SDS011;34732;52.112;9.366;2023-05-07T09:22:35;13.50;;;7.85;;
46983;SDS011;34732;52.112;9.366;2023-05-07T09:26:00;19.17;;;7.68;;
46983;SDS011;34732;52.112;9.366;2023-05-07T09:29:25;48.45;;;14.68;;
46983;SDS011;34732;52.112;9.366;2023-05-07T09:32:49;24.05;;;10.10;;
46983;SDS011;34732;52.112;9.366;2023-05-07T09:36:16;13.63;;;9.32;;
46983;SDS011;34732;52.112;9.366;2023-05-07T09:43:11;12.10;;;7.75;;
46983;SDS011;34732;52.112;9.366;2023-05-07T09:46:53;10.88;;;7.65;;
46983;SDS011;34732;52.112;9.366;2023-05-07T09:50:22;10.73;;;7.47;;
46983;SDS011;34732;52.112;9.366;2023-05-07T09:53:53;9.63;;;7.03;;
46983;SDS011;34732;52.112;9.366;2023-05-07T09:57:20;10.45;;;6.97;;
46983;SDS011;34732;52.112;9.366;2023-05-07T10:00:47;11.32;;;7.03;;
46983;SDS011;34732;52.112;9.366;2023-05-07T10:04:12;12.13;;;7.03;;
46983;SDS011;34732;52.112;9.366;2023-05-07T10:07:35;10.38;;;6.55;;
46983;SDS011;34732;52.112;9.366;2023-05-07T10:11:03;15.15;;;7.88;;
46983;SDS011;34732;52.112;9.366;2023-05-07T10:14:29;12.95;;;6.95;;
46983;SDS011;34732;52.112;9.366;2023-05-07T10:17:55;8.80;;;5.82;;
46983;SDS011;34732;52.112;9.366;2023-05-07T10:21:19;8.93;;;6.07;;
46983;SDS011;34732;52.112;9.366;2023-05-07T10:24:48;10.35;;;6.40;;
46983;SDS011;34732;52.112;9.366;2023-05-07T10:28:17;10.02;;;6.20;;
46983;SDS011;34732;52.112;9.366;2023-05-07T10:31:48;8.35;;;6.07;;
46983;SDS011;34732;52.112;9.366;2023-05-07T10:35:15;11.40;;;6.22;;
46983;SDS011;34732;52.112;9.366;2023-05-07T10:38:44;7.82;;;5.80;;
46983;SDS011;34732;52.112;9.366;2023-05-07T10:42:08;8.35;;;6.03;;
46983;SDS011;34732;52.112;9.366;2023-05-07T10:45:41;8.38;;;6.00;;
46983;SDS011;34732;52.112;9.366;2023-05-07T10:53:20;8.25;;;5.53;;
46983;SDS011;34732;52.112;9.366;2023-05-07T10:56:53;7.95;;;5.45;;
46983;SDS011;34732;52.112;9.366;2023-05-07T11:07:45;6.80;;;5.30;;
46983;SDS011;34732;52.112;9.366;2023-05-07T11:15:13;8.48;;;5.53;;
46983;SDS011;34732;52.112;9.366;2023-05-07T11:19:14;8.02;;;5.30;;
46983;SDS011;34732;52.112;9.366;2023-05-07T11:26:29;8.93;;;5.07;;
46983;SDS011;34732;52.112;9.366;2023-05-07T11:29:54;7.70;;;5.32;;
46983;SDS011;34732;52.112;9.366;2023-05-07T11:33:17;8.73;;;5.10;;
46983;SDS011;34732;52.112;9.366;2023-05-07T11:36:44;10.77;;;5.22;;
46983;SDS011;34732;52.112;9.366;2023-05-07T11:40:13;7.20;;;5.15;;
46983;SDS011;34732;52.112;9.366;2023-05-07T11:43:35;6.75;;;4.80;;
46983;SDS011;34732;52.112;9.366;2023-05-07T11:50:19;9.20;;;5.10;;
46983;SDS011;34732;52.112;9.366;2023-05-07T11:53:41;5.78;;;4.43;;
46983;SDS011;34732;52.112;9.366;2023-05-07T11:57:05;7.72;;;4.85;;
46983;SDS011;34732;52.112;9.366;2023-05-07T12:00:30;6.75;;;4.78;;
46983;SDS011;34732;52.112;9.366;2023-05-07T12:03:56;8.70;;;4.95;;
46983;SDS011;34732;52.112;9.366;2023-05-07T12:07:19;5.53;;;4.60;;
46983;SDS011;34732;52.112;9.366;2023-05-07T12:10:44;5.57;;;3.85;;
46983;SDS011;34732;52.112;9.366;2023-05-07T12:14:09;5.50;;;4.93;;
46983;SDS011;34732;52.112;9.366;2023-05-07T12:17:33;4.88;;;4.15;;
46983;SDS011;34732;52.112;9.366;2023-05-07T12:20:56;4.97;;;4.18;;
46983;SDS011;34732;52.112;9.366;2023-05-07T12:24:21;6.85;;;4.90;;
46983;SDS011;34732;52.112;9.366;2023-05-07T12:27:47;5.82;;;4.70;;
46983;SDS011;34732;52.112;9.366;2023-05-07T12:31:14;5.03;;;4.10;;
46983;SDS011;34732;52.112;9.366;2023-05-07T12:34:40;8.43;;;4.45;;
46983;SDS011;34732;52.112;9.366;2023-05-07T12:38:01;6.45;;;4.13;;
46983;SDS011;34732;52.112;9.366;2023-05-07T12:41:26;4.80;;;4.10;;
46983;SDS011;34732;52.112;9.366;2023-05-07T12:44:50;4.90;;;3.45;;
46983;SDS011;34732;52.112;9.366;2023-05-07T12:48:12;4.57;;;3.88;;
46983;SDS011;34732;52.112;9.366;2023-05-07T12:51:36;4.22;;;3.83;;
46983;SDS011;34732;52.112;9.366;2023-05-07T12:55:04;5.57;;;4.70;;
46983;SDS011;34732;52.112;9.366;2023-05-07T13:01:49;6.25;;;5.65;;
46983;SDS011;34732;52.112;9.366;2023-05-07T13:05:17;6.53;;;5.82;;
46983;SDS011;34732;52.112;9.366;2023-05-07T13:08:41;6.20;;;5.60;;
46983;SDS011;34732;52.112;9.366;2023-05-07T13:12:04;7.60;;;6.40;;
46983;SDS011;34732;52.112;9.366;2023-05-07T13:15:29;5.72;;;5.20;;
46983;SDS011;34732;52.112;9.366;2023-05-07T13:18:57;6.07;;;5.50;;
46983;SDS011;34732;52.112;9.366;2023-05-07T13:22:23;6.40;;;5.40;;
46983;SDS011;34732;52.112;9.366;2023-05-07T13:25:49;6.68;;;5.78;;
46983;SDS011;34732;52.112;9.366;2023-05-07T13:29:14;7.05;;;6.10;;
46983;SDS011;34732;52.112;9.366;2023-05-07T13:32:38;6.85;;;5.70;;
46983;SDS011;34732;52.112;9.366;2023-05-07T13:36:01;6.50;;;5.90;;
46983;SDS011;34732;52.112;9.366;2023-05-07T13:39:25;7.18;;;6.47;;
46983;SDS011;34732;52.112;9.366;2023-05-07T13:42:48;6.68;;;6.07;;
46983;SDS011;34732;52.112;9.366;2023-05-07T13:46:10;6.93;;;6.22;;
46983;SDS011;34732;52.112;9.366;2023-05-07T13:49:36;6.10;;;5.50;;
46983;SDS011;34732;52.112;9.366;2023-05-07T13:52:59;6.75;;;6.15;;
46983;SDS011;34732;52.112;9.366;2023-05-07T13:56:23;7.72;;;5.88;;
46983;SDS011;34732;52.112;9.366;2023-05-07T13:59:51;6.13;;;5.47;;
46983;SDS011;34732;52.112;9.366;2023-05-07T14:03:14;5.70;;;5.20;;
46983;SDS011;34732;52.112;9.366;2023-05-07T14:06:43;5.95;;;5.35;;
46983;SDS011;34732;52.112;9.366;2023-05-07T14:10:11;6.97;;;6.28;;
46983;SDS011;34732;52.112;9.366;2023-05-07T14:13:33;7.35;;;5.47;;
46983;SDS011;34732;52.112;9.366;2023-05-07T14:16:54;5.97;;;5.25;;
46983;SDS011;34732;52.112;9.366;2023-05-07T14:20:22;6.03;;;5.43;;
46983;SDS011;34732;52.112;9.366;2023-05-07T14:23:48;5.25;;;4.75;;
46983;SDS011;34732;52.112;9.366;2023-05-07T14:27:12;6.20;;;5.00;;
46983;SDS011;34732;52.112;9.366;2023-05-07T14:30:35;7.35;;;5.20;;
46983;SDS011;34732;52.112;9.366;2023-05-07T14:34:01;6.18;;;5.25;;
46983;SDS011;34732;52.112;9.366;2023-05-07T14:37:29;5.32;;;4.82;;
46983;SDS011;34732;52.112;9.366;2023-05-07T14:40:51;5.78;;;4.68;;
46983;SDS011;34732;52.112;9.366;2023-05-07T14:44:17;10.70;;;5.00;;
46983;SDS011;34732;52.112;9.366;2023-05-07T14:47:43;6.95;;;4.68;;
46983;SDS011;34732;52.112;9.366;2023-05-07T14:51:07;5.38;;;4.82;;
46983;SDS011;34732;52.112;9.366;2023-05-07T14:54:30;5.30;;;4.80;;
46983;SDS011;34732;52.112;9.366;2023-05-07T14:57:55;9.25;;;4.95;;
46983;SDS011;34732;52.112;9.366;2023-05-07T15:01:20;4.78;;;4.32;;
46983;SDS011;34732;52.112;9.366;2023-05-07T15:04:43;4.72;;;4.30;;
46983;SDS011;34732;52.112;9.366;2023-05-07T15:08:10;6.53;;;4.82;;
46983;SDS011;34732;52.112;9.366;2023-05-07T15:11:36;6.32;;;4.85;;
46983;SDS011;34732;52.112;9.366;2023-05-07T15:14:58;5.05;;;4.60;;
46983;SDS011;34732;52.112;9.366;2023-05-07T15:18:23;5.97;;;4.60;;
46983;SDS011;34732;52.112;9.366;2023-05-07T15:25:05;7.53;;;5.30;;
46983;SDS011;34732;52.112;9.366;2023-05-07T15:28:26;5.82;;;5.15;;
46983;SDS011;34732;52.112;9.366;2023-05-07T15:31:53;5.88;;;5.28;;
46983;SDS011;34732;52.112;9.366;2023-05-07T15:35:16;9.68;;;4.95;;
46983;SDS011;34732;52.112;9.366;2023-05-07T15:38:45;5.10;;;4.60;;
46983;SDS011;34732;52.112;9.366;2023-05-07T15:42:11;10.25;;;5.15;;
46983;SDS011;34732;52.112;9.366;2023-05-07T15:45:40;5.50;;;4.57;;
46983;SDS011;34732;52.112;9.366;2023-05-07T15:49:04;6.57;;;5.13;;
46983;SDS011;34732;52.112;9.366;2023-05-07T15:52:30;6.05;;;4.40;;
46983;SDS011;34732;52.112;9.366;2023-05-07T15:55:53;5.07;;;4.57;;
46983;SDS011;34732;52.112;9.366;2023-05-07T15:59:19;6.57;;;5.28;;
46983;SDS011;34732;52.112;9.366;2023-05-07T16:02:44;5.30;;;4.80;;
46983;SDS011;34732;52.112;9.366;2023-05-07T16:06:10;6.65;;;5.25;;
46983;SDS011;34732;52.112;9.366;2023-05-07T16:09:37;5.47;;;4.93;;
46983;SDS011;34732;52.112;9.366;2023-05-07T16:13:02;6.55;;;5.07;;
46983;SDS011;34732;52.112;9.366;2023-05-07T16:16:24;5.57;;;5.00;;
46983;SDS011;34732;52.112;9.366;2023-05-07T16:19:49;5.50;;;5.00;;
46983;SDS011;34732;52.112;9.366;2023-05-07T16:23:13;6.20;;;5.13;;
46983;SDS011;34732;52.112;9.366;2023-05-07T16:26:38;5.72;;;5.13;;
46983;SDS011;34732;52.112;9.366;2023-05-07T16:30:02;5.57;;;4.65;;
46983;SDS011;34732;52.112;9.366;2023-05-07T16:33:32;7.95;;;5.55;;
46983;SDS011;34732;52.112;9.366;2023-05-07T16:36:53;6.35;;;4.55;;
46983;SDS011;34732;52.112;9.366;2023-05-07T16:40:19;6.10;;;5.28;;
46983;SDS011;34732;52.112;9.366;2023-05-07T16:43:40;5.30;;;4.80;;
46983;SDS011;34732;52.112;9.366;2023-05-07T16:47:04;7.82;;;5.10;;
46983;SDS011;34732;52.112;9.366;2023-05-07T16:50:27;6.22;;;5.07;;
46983;SDS011;34732;52.112;9.366;2023-05-07T16:53:51;6.47;;;4.68;;
46983;SDS011;34732;52.112;9.366;2023-05-07T16:57:17;6.18;;;5.60;;
46983;SDS011;34732;52.112;9.366;2023-05-07T17:00:44;7.13;;;4.90;;
46983;SDS011;34732;52.112;9.366;2023-05-07T17:04:07;5.93;;;4.75;;
46983;SDS011;34732;52.112;9.366;2023-05-07T17:07:28;6.28;;;5.10;;
46983;SDS011;34732;52.112;9.366;2023-05-07T17:10:52;6.18;;;5.15;;
46983;SDS011;34732;52.112;9.366;2023-05-07T17:14:16;5.35;;;4.85;;
46983;SDS011;34732;52.112;9.366;2023-05-07T17:17:39;5.95;;;4.95;;
46983;SDS011;34732;52.112;9.366;2023-05-07T17:21:03;5.20;;;4.80;;
46983;SDS011;34732;52.112;9.366;2023-05-07T17:24:29;5.28;;;4.72;;
46983;SDS011;34732;52.112;9.366;2023-05-07T17:27:52;5.75;;;4.97;;
46983;SDS011;34732;52.112;9.366;2023-05-07T17:31:16;5.45;;;4.95;;
46983;SDS011;34732;52.112;9.366;2023-05-07T17:34:40;5.28;;;4.80;;
46983;SDS011;34732;52.112;9.366;2023-05-07T17:38:11;4.75;;;4.35;;
46983;SDS011;34732;52.112;9.366;2023-05-07T17:41:36;4.60;;;4.20;;
46983;SDS011;34732;52.112;9.366;2023-05-07T17:45:02;6.07;;;4.82;;
46983;SDS011;34732;52.112;9.366;2023-05-07T17:48:26;5.18;;;4.65;;
46983;SDS011;34732;52.112;9.366;2023-05-07T17:51:47;5.53;;;4.93;;
46983;SDS011;34732;52.112;9.366;2023-05-07T17:55:10;7.30;;;4.75;;
46983;SDS011;34732;52.112;9.366;2023-05-07T17:58:34;6.65;;;5.35;;
46983;SDS011;34732;52.112;9.366;2023-05-07T18:01:55;6.75;;;4.90;;
46983;SDS011;34732;52.112;9.366;2023-05-07T18:05:21;5.80;;;5.30;;
46983;SDS011;34732;52.112;9.366;2023-05-07T18:08:43;7.38;;;5.35;;
46983;SDS011;34732;52.112;9.366;2023-05-07T18:12:11;16.20;;;7.15;;
46983;SDS011;34732;52.112;9.366;2023-05-07T18:15:32;12.18;;;7.20;;
46983;SDS011;34732;52.112;9.366;2023-05-07T18:18:55;25.42;;;7.43;;
46983;SDS011;34732;52.112;9.366;2023-05-07T18:22:16;23.65;;;7.78;;
46983;SDS011;34732;52.112;9.366;2023-05-07T18:25:38;24.38;;;8.13;;
46983;SDS011;34732;52.112;9.366;2023-05-07T18:29:01;10.38;;;8.13;;
46983;SDS011;34732;52.112;9.366;2023-05-07T18:32:25;9.50;;;8.13;;
46983;SDS011;34732;52.112;9.366;2023-05-07T18:35:51;11.88;;;8.57;;
